In Rescue
 
Open Full Screen Window  High Contrast Mode
Wind Gusting 00 knots
10
April 03, 2020 12:28 AM EDT
Present Weather: Mist
Weather Information
Wind Direction
  340 °
Wind Speed
  10 kt (12 mph)
Wind Gust
  00 kt (0 mph)
Altimeter
29.67 in
Visibility
2 1/2 SM
Temperature
04° C
39° F
Dewpoint
04° C
39° F
Humidity
100%
Sky Condition
Overcast @ 500 ft
IFR

METAR KEFK 030428Z AUTO 34010KT 2 1/2SM BR OVC005 04/04 A2967 RMK AO2 T00350035

FAA Disclaimer: The data displayed is for advisory purposes only and is not to be used for flight planning or operations.